sensor_id;sensor_type;location;lat;lon;timestamp;P1;durP1;ratioP1;P2;durP2;ratioP2
70908;SDS011;58554;52.006;5.926;2023-06-14T00:01:56;6.32;;;3.63;;
70908;SDS011;58554;52.006;5.926;2023-06-14T00:04:22;6.28;;;3.88;;
70908;SDS011;58554;52.006;5.926;2023-06-14T00:06:49;7.90;;;4.10;;
70908;SDS011;58554;52.006;5.926;2023-06-14T00:09:18;8.90;;;4.03;;
70908;SDS011;58554;52.006;5.926;2023-06-14T00:11:44;10.40;;;3.80;;
70908;SDS011;58554;52.006;5.926;2023-06-14T00:14:11;6.07;;;3.33;;
70908;SDS011;58554;52.006;5.926;2023-06-14T00:16:37;10.00;;;4.10;;
70908;SDS011;58554;52.006;5.926;2023-06-14T00:19:04;5.63;;;3.70;;
70908;SDS011;58554;52.006;5.926;2023-06-14T00:21:30;6.17;;;3.90;;
70908;SDS011;58554;52.006;5.926;2023-06-14T00:23:57;6.32;;;4.00;;
70908;SDS011;58554;52.006;5.926;2023-06-14T00:26:27;7.03;;;3.90;;
70908;SDS011;58554;52.006;5.926;2023-06-14T00:28:53;5.65;;;3.72;;
70908;SDS011;58554;52.006;5.926;2023-06-14T00:31:20;6.60;;;3.67;;
70908;SDS011;58554;52.006;5.926;2023-06-14T00:33:46;5.68;;;3.75;;
70908;SDS011;58554;52.006;5.926;2023-06-14T00:36:13;7.27;;;3.80;;
70908;SDS011;58554;52.006;5.926;2023-06-14T00:38:40;8.43;;;3.88;;
70908;SDS011;58554;52.006;5.926;2023-06-14T00:41:07;13.57;;;4.10;;
70908;SDS011;58554;52.006;5.926;2023-06-14T00:43:36;6.30;;;3.60;;
70908;SDS011;58554;52.006;5.926;2023-06-14T00:46:02;6.60;;;3.65;;
70908;SDS011;58554;52.006;5.926;2023-06-14T00:48:29;9.73;;;3.70;;
70908;SDS011;58554;52.006;5.926;2023-06-14T00:50:57;6.60;;;3.45;;
70908;SDS011;58554;52.006;5.926;2023-06-14T00:53:28;8.55;;;3.85;;
70908;SDS011;58554;52.006;5.926;2023-06-14T00:55:56;7.15;;;3.55;;
70908;SDS011;58554;52.006;5.926;2023-06-14T00:58:23;6.40;;;4.20;;
70908;SDS011;58554;52.006;5.926;2023-06-14T01:00:53;7.33;;;3.77;;
70908;SDS011;58554;52.006;5.926;2023-06-14T01:03:20;6.90;;;3.78;;
70908;SDS011;58554;52.006;5.926;2023-06-14T01:05:46;6.40;;;3.70;;
70908;SDS011;58554;52.006;5.926;2023-06-14T01:08:14;6.77;;;3.90;;
70908;SDS011;58554;52.006;5.926;2023-06-14T01:10:56;7.63;;;3.53;;
70908;SDS011;58554;52.006;5.926;2023-06-14T01:13:36;5.87;;;3.83;;
70908;SDS011;58554;52.006;5.926;2023-06-14T01:16:11;6.13;;;3.90;;
70908;SDS011;58554;52.006;5.926;2023-06-14T01:18:38;13.27;;;4.07;;
70908;SDS011;58554;52.006;5.926;2023-06-14T01:21:05;6.30;;;3.90;;
70908;SDS011;58554;52.006;5.926;2023-06-14T01:23:34;7.10;;;3.60;;
70908;SDS011;58554;52.006;5.926;2023-06-14T01:26:01;6.70;;;3.97;;
70908;SDS011;58554;52.006;5.926;2023-06-14T01:28:28;6.65;;;3.85;;
70908;SDS011;58554;52.006;5.926;2023-06-14T01:30:55;6.93;;;3.85;;
70908;SDS011;58554;52.006;5.926;2023-06-14T01:33:22;10.60;;;3.50;;
70908;SDS011;58554;52.006;5.926;2023-06-14T01:35:53;7.25;;;3.67;;
70908;SDS011;58554;52.006;5.926;2023-06-14T01:38:23;8.60;;;3.80;;
70908;SDS011;58554;52.006;5.926;2023-06-14T01:40:55;5.70;;;3.42;;
70908;SDS011;58554;52.006;5.926;2023-06-14T01:43:25;5.63;;;3.80;;
70908;SDS011;58554;52.006;5.926;2023-06-14T01:45:55;9.05;;;4.00;;
70908;SDS011;58554;52.006;5.926;2023-06-14T01:48:24;6.47;;;3.77;;
70908;SDS011;58554;52.006;5.926;2023-06-14T01:50:52;7.57;;;3.67;;
70908;SDS011;58554;52.006;5.926;2023-06-14T01:53:19;6.65;;;3.45;;
70908;SDS011;58554;52.006;5.926;2023-06-14T01:55:45;7.77;;;3.80;;
70908;SDS011;58554;52.006;5.926;2023-06-14T01:58:15;5.80;;;3.80;;
70908;SDS011;58554;52.006;5.926;2023-06-14T02:00:42;6.45;;;3.60;;
70908;SDS011;58554;52.006;5.926;2023-06-14T02:03:08;11.60;;;3.60;;
70908;SDS011;58554;52.006;5.926;2023-06-14T02:05:35;6.87;;;3.87;;
70908;SDS011;58554;52.006;5.926;2023-06-14T02:08:01;6.03;;;3.50;;
70908;SDS011;58554;52.006;5.926;2023-06-14T02:10:28;5.80;;;3.60;;
70908;SDS011;58554;52.006;5.926;2023-06-14T02:12:54;7.55;;;3.63;;
70908;SDS011;58554;52.006;5.926;2023-06-14T02:15:23;7.90;;;3.90;;
70908;SDS011;58554;52.006;5.926;2023-06-14T02:17:50;6.00;;;4.07;;
70908;SDS011;58554;52.006;5.926;2023-06-14T02:20:16;6.10;;;3.88;;
70908;SDS011;58554;52.006;5.926;2023-06-14T02:22:43;8.43;;;3.60;;
70908;SDS011;58554;52.006;5.926;2023-06-14T02:25:11;7.22;;;3.92;;
70908;SDS011;58554;52.006;5.926;2023-06-14T02:27:37;7.17;;;3.77;;
70908;SDS011;58554;52.006;5.926;2023-06-14T02:30:05;5.05;;;3.40;;
70908;SDS011;58554;52.006;5.926;2023-06-14T02:32:35;8.38;;;3.80;;
70908;SDS011;58554;52.006;5.926;2023-06-14T02:35:02;6.37;;;3.27;;
70908;SDS011;58554;52.006;5.926;2023-06-14T02:37:30;6.07;;;3.88;;
70908;SDS011;58554;52.006;5.926;2023-06-14T02:39:56;9.30;;;3.90;;
70908;SDS011;58554;52.006;5.926;2023-06-14T02:42:23;7.97;;;3.63;;
70908;SDS011;58554;52.006;5.926;2023-06-14T02:44:49;8.07;;;3.75;;
70908;SDS011;58554;52.006;5.926;2023-06-14T02:47:16;8.63;;;3.60;;
70908;SDS011;58554;52.006;5.926;2023-06-14T02:49:45;6.53;;;3.77;;
70908;SDS011;58554;52.006;5.926;2023-06-14T02:52:12;8.00;;;3.80;;
70908;SDS011;58554;52.006;5.926;2023-06-14T02:54:39;5.93;;;3.80;;
70908;SDS011;58554;52.006;5.926;2023-06-14T02:57:05;7.07;;;3.80;;
70908;SDS011;58554;52.006;5.926;2023-06-14T02:59:32;6.53;;;4.00;;
70908;SDS011;58554;52.006;5.926;2023-06-14T03:01:58;6.30;;;3.65;;
70908;SDS011;58554;52.006;5.926;2023-06-14T03:04:25;5.70;;;3.37;;
70908;SDS011;58554;52.006;5.926;2023-06-14T03:06:54;8.87;;;3.80;;
70908;SDS011;58554;52.006;5.926;2023-06-14T03:09:21;6.90;;;3.63;;
70908;SDS011;58554;52.006;5.926;2023-06-14T03:11:47;5.77;;;3.53;;
70908;SDS011;58554;52.006;5.926;2023-06-14T03:14:14;6.85;;;3.75;;
70908;SDS011;58554;52.006;5.926;2023-06-14T03:16:40;5.03;;;3.50;;
70908;SDS011;58554;52.006;5.926;2023-06-14T03:19:07;5.82;;;3.95;;
70908;SDS011;58554;52.006;5.926;2023-06-14T03:21:33;7.10;;;4.00;;
70908;SDS011;58554;52.006;5.926;2023-06-14T03:24:02;5.33;;;3.60;;
70908;SDS011;58554;52.006;5.926;2023-06-14T03:26:29;5.57;;;3.70;;
70908;SDS011;58554;52.006;5.926;2023-06-14T03:28:56;6.00;;;3.78;;
70908;SDS011;58554;52.006;5.926;2023-06-14T03:31:22;9.10;;;3.97;;
70908;SDS011;58554;52.006;5.926;2023-06-14T03:33:49;6.90;;;3.83;;
70908;SDS011;58554;52.006;5.926;2023-06-14T03:36:15;5.80;;;3.70;;
70908;SDS011;58554;52.006;5.926;2023-06-14T03:38:41;7.37;;;3.73;;
70908;SDS011;58554;52.006;5.926;2023-06-14T03:41:10;7.13;;;4.00;;
70908;SDS011;58554;52.006;5.926;2023-06-14T03:43:37;6.53;;;4.07;;
70908;SDS011;58554;52.006;5.926;2023-06-14T03:46:03;7.07;;;3.85;;
70908;SDS011;58554;52.006;5.926;2023-06-14T03:48:30;7.33;;;3.90;;
70908;SDS011;58554;52.006;5.926;2023-06-14T03:50:56;7.00;;;3.90;;
70908;SDS011;58554;52.006;5.926;2023-06-14T03:53:23;6.73;;;3.63;;
70908;SDS011;58554;52.006;5.926;2023-06-14T03:55:49;7.68;;;3.88;;
70908;SDS011;58554;52.006;5.926;2023-06-14T03:58:19;8.17;;;4.00;;
70908;SDS011;58554;52.006;5.926;2023-06-14T04:00:45;7.10;;;3.60;;
70908;SDS011;58554;52.006;5.926;2023-06-14T04:03:12;6.17;;;3.60;;
70908;SDS011;58554;52.006;5.926;2023-06-14T04:05:39;6.72;;;3.90;;
70908;SDS011;58554;52.006;5.926;2023-06-14T04:08:05;8.83;;;3.97;;
70908;SDS011;58554;52.006;5.926;2023-06-14T04:10:32;9.43;;;3.55;;
70908;SDS011;58554;52.006;5.926;2023-06-14T04:12:58;5.43;;;3.40;;
70908;SDS011;58554;52.006;5.926;2023-06-14T04:15:27;8.38;;;4.10;;
70908;SDS011;58554;52.006;5.926;2023-06-14T04:17:54;7.30;;;3.58;;
70908;SDS011;58554;52.006;5.926;2023-06-14T04:20:20;6.87;;;3.50;;
70908;SDS011;58554;52.006;5.926;2023-06-14T04:22:47;6.60;;;3.60;;
70908;SDS011;58554;52.006;5.926;2023-06-14T04:25:13;5.63;;;3.53;;
70908;SDS011;58554;52.006;5.926;2023-06-14T04:27:40;6.17;;;3.77;;
70908;SDS011;58554;52.006;5.926;2023-06-14T04:30:07;6.28;;;3.88;;
70908;SDS011;58554;52.006;5.926;2023-06-14T04:32:37;6.70;;;3.73;;
70908;SDS011;58554;52.006;5.926;2023-06-14T04:35:04;8.30;;;3.63;;
70908;SDS011;58554;52.006;5.926;2023-06-14T04:37:32;5.35;;;3.50;;
70908;SDS011;58554;52.006;5.926;2023-06-14T04:39:58;5.13;;;3.63;;
70908;SDS011;58554;52.006;5.926;2023-06-14T04:42:25;6.07;;;3.58;;
70908;SDS011;58554;52.006;5.926;2023-06-14T04:44:52;7.50;;;3.97;;
70908;SDS011;58554;52.006;5.926;2023-06-14T04:47:18;7.30;;;3.70;;
70908;SDS011;58554;52.006;5.926;2023-06-14T04:49:47;7.38;;;3.85;;
70908;SDS011;58554;52.006;5.926;2023-06-14T04:52:14;5.72;;;3.50;;
70908;SDS011;58554;52.006;5.926;2023-06-14T04:54:40;6.03;;;3.67;;
70908;SDS011;58554;52.006;5.926;2023-06-14T04:57:06;5.72;;;3.58;;
70908;SDS011;58554;52.006;5.926;2023-06-14T04:59:33;6.03;;;4.03;;
70908;SDS011;58554;52.006;5.926;2023-06-14T05:02:00;6.57;;;3.80;;
70908;SDS011;58554;52.006;5.926;2023-06-14T05:04:27;5.97;;;3.53;;
70908;SDS011;58554;52.006;5.926;2023-06-14T05:06:56;6.03;;;3.60;;
70908;SDS011;58554;52.006;5.926;2023-06-14T05:09:22;6.07;;;3.60;;
70908;SDS011;58554;52.006;5.926;2023-06-14T05:11:49;5.57;;;3.67;;
70908;SDS011;58554;52.006;5.926;2023-06-14T05:14:16;5.13;;;3.13;;
70908;SDS011;58554;52.006;5.926;2023-06-14T05:16:42;6.95;;;3.70;;
70908;SDS011;58554;52.006;5.926;2023-06-14T05:19:09;7.07;;;3.50;;
70908;SDS011;58554;52.006;5.926;2023-06-14T05:21:36;5.13;;;3.43;;
70908;SDS011;58554;52.006;5.926;2023-06-14T05:24:05;6.50;;;3.63;;
70908;SDS011;58554;52.006;5.926;2023-06-14T05:26:32;6.80;;;3.60;;
70908;SDS011;58554;52.006;5.926;2023-06-14T05:28:59;7.17;;;3.80;;
70908;SDS011;58554;52.006;5.926;2023-06-14T05:31:25;5.90;;;3.83;;
70908;SDS011;58554;52.006;5.926;2023-06-14T05:33:52;5.90;;;4.07;;
70908;SDS011;58554;52.006;5.926;2023-06-14T05:36:19;7.05;;;4.05;;
70908;SDS011;58554;52.006;5.926;2023-06-14T05:38:46;5.87;;;4.07;;
70908;SDS011;58554;52.006;5.926;2023-06-14T05:41:15;6.60;;;4.23;;
70908;SDS011;58554;52.006;5.926;2023-06-14T05:43:42;9.77;;;3.87;;
70908;SDS011;58554;52.006;5.926;2023-06-14T05:46:08;7.07;;;3.93;;
70908;SDS011;58554;52.006;5.926;2023-06-14T05:48:34;7.35;;;4.10;;
70908;SDS011;58554;52.006;5.926;2023-06-14T05:51:01;5.23;;;3.77;;
70908;SDS011;58554;52.006;5.926;2023-06-14T05:53:28;5.87;;;4.17;;
70908;SDS011;58554;52.006;5.926;2023-06-14T05:55:55;5.00;;;3.75;;
70908;SDS011;58554;52.006;5.926;2023-06-14T05:58:24;8.18;;;4.10;;
70908;SDS011;58554;52.006;5.926;2023-06-14T06:00:50;6.07;;;4.00;;
70908;SDS011;58554;52.006;5.926;2023-06-14T06:03:17;6.35;;;3.67;;
70908;SDS011;58554;52.006;5.926;2023-06-14T06:05:43;7.47;;;4.07;;
70908;SDS011;58554;52.006;5.926;2023-06-14T06:08:10;6.47;;;4.10;;
70908;SDS011;58554;52.006;5.926;2023-06-14T06:10:36;5.72;;;3.85;;
70908;SDS011;58554;52.006;5.926;2023-06-14T06:13:03;6.07;;;3.72;;
70908;SDS011;58554;52.006;5.926;2023-06-14T06:15:32;7.50;;;3.90;;
70908;SDS011;58554;52.006;5.926;2023-06-14T06:17:58;7.20;;;3.80;;
70908;SDS011;58554;52.006;5.926;2023-06-14T06:20:25;8.18;;;3.88;;
70908;SDS011;58554;52.006;5.926;2023-06-14T06:22:51;7.27;;;4.23;;
70908;SDS011;58554;52.006;5.926;2023-06-14T06:25:18;6.80;;;3.77;;
70908;SDS011;58554;52.006;5.926;2023-06-14T06:27:45;6.10;;;3.90;;
70908;SDS011;58554;52.006;5.926;2023-06-14T06:30:12;5.78;;;3.60;;
70908;SDS011;58554;52.006;5.926;2023-06-14T06:32:42;6.68;;;3.67;;
70908;SDS011;58554;52.006;5.926;2023-06-14T06:35:08;5.77;;;3.77;;
70908;SDS011;58554;52.006;5.926;2023-06-14T06:37:35;8.80;;;4.00;;
70908;SDS011;58554;52.006;5.926;2023-06-14T06:40:01;5.68;;;3.60;;
70908;SDS011;58554;52.006;5.926;2023-06-14T06:42:28;5.32;;;3.40;;
70908;SDS011;58554;52.006;5.926;2023-06-14T06:44:55;9.05;;;3.63;;
70908;SDS011;58554;52.006;5.926;2023-06-14T06:47:21;6.07;;;3.80;;
70908;SDS011;58554;52.006;5.926;2023-06-14T06:49:51;5.88;;;3.70;;
70908;SDS011;58554;52.006;5.926;2023-06-14T06:52:17;5.45;;;3.40;;
70908;SDS011;58554;52.006;5.926;2023-06-14T06:54:44;7.23;;;3.27;;
70908;SDS011;58554;52.006;5.926;2023-06-14T06:57:10;7.07;;;3.67;;
70908;SDS011;58554;52.006;5.926;2023-06-14T06:59:37;4.65;;;3.08;;
70908;SDS011;58554;52.006;5.926;2023-06-14T07:02:04;4.87;;;3.40;;
70908;SDS011;58554;52.006;5.926;2023-06-14T07:04:31;6.00;;;3.53;;
70908;SDS011;58554;52.006;5.926;2023-06-14T07:07:00;10.38;;;3.38;;
70908;SDS011;58554;52.006;5.926;2023-06-14T07:09:27;5.10;;;3.37;;
70908;SDS011;58554;52.006;5.926;2023-06-14T07:11:53;5.37;;;3.40;;
70908;SDS011;58554;52.006;5.926;2023-06-14T07:14:20;4.68;;;3.00;;
70908;SDS011;58554;52.006;5.926;2023-06-14T07:16:46;4.87;;;2.93;;
70908;SDS011;58554;52.006;5.926;2023-06-14T07:19:13;4.90;;;3.23;;
70908;SDS011;58554;52.006;5.926;2023-06-14T07:21:39;5.63;;;3.25;;
70908;SDS011;58554;52.006;5.926;2023-06-14T07:24:09;5.10;;;3.00;;
70908;SDS011;58554;52.006;5.926;2023-06-14T07:26:35;6.57;;;3.58;;
70908;SDS011;58554;52.006;5.926;2023-06-14T07:29:02;6.78;;;3.30;;
70908;SDS011;58554;52.006;5.926;2023-06-14T07:31:28;4.30;;;3.10;;
70908;SDS011;58554;52.006;5.926;2023-06-14T07:33:55;5.30;;;2.80;;
70908;SDS011;58554;52.006;5.926;2023-06-14T07:36:21;6.70;;;3.00;;
70908;SDS011;58554;52.006;5.926;2023-06-14T07:38:48;6.90;;;2.73;;
70908;SDS011;58554;52.006;5.926;2023-06-14T07:41:17;5.40;;;3.10;;
70908;SDS011;58554;52.006;5.926;2023-06-14T07:43:44;4.53;;;2.70;;
70908;SDS011;58554;52.006;5.926;2023-06-14T07:46:10;4.43;;;2.45;;
70908;SDS011;58554;52.006;5.926;2023-06-14T07:48:37;4.17;;;2.73;;
70908;SDS011;58554;52.006;5.926;2023-06-14T07:51:04;5.00;;;2.20;;
70908;SDS011;58554;52.006;5.926;2023-06-14T07:53:30;5.57;;;2.63;;
70908;SDS011;58554;52.006;5.926;2023-06-14T07:55:57;3.38;;;2.40;;
70908;SDS011;58554;52.006;5.926;2023-06-14T07:58:26;3.65;;;2.45;;
70908;SDS011;58554;52.006;5.926;2023-06-14T08:00:53;5.33;;;2.60;;
70908;SDS011;58554;52.006;5.926;2023-06-14T08:03:19;4.10;;;2.33;;
70908;SDS011;58554;52.006;5.926;2023-06-14T08:05:46;4.00;;;2.55;;
70908;SDS011;58554;52.006;5.926;2023-06-14T08:08:13;4.00;;;2.40;;
70908;SDS011;58554;52.006;5.926;2023-06-14T08:10:39;4.70;;;2.40;;
70908;SDS011;58554;52.006;5.926;2023-06-14T08:13:06;4.90;;;3.07;;
70908;SDS011;58554;52.006;5.926;2023-06-14T08:15:35;4.55;;;2.50;;
70908;SDS011;58554;52.006;5.926;2023-06-14T08:18:01;7.53;;;2.47;;
70908;SDS011;58554;52.006;5.926;2023-06-14T08:20:28;4.18;;;2.70;;
70908;SDS011;58554;52.006;5.926;2023-06-14T08:22:54;6.07;;;3.00;;
70908;SDS011;58554;52.006;5.926;2023-06-14T08:25:22;5.10;;;2.80;;
70908;SDS011;58554;52.006;5.926;2023-06-14T08:27:49;6.00;;;3.05;;
70908;SDS011;58554;52.006;5.926;2023-06-14T08:30:15;6.97;;;2.90;;
70908;SDS011;58554;52.006;5.926;2023-06-14T08:32:44;4.37;;;2.70;;
70908;SDS011;58554;52.006;5.926;2023-06-14T08:35:11;3.88;;;2.50;;
70908;SDS011;58554;52.006;5.926;2023-06-14T08:37:40;4.53;;;2.65;;
70908;SDS011;58554;52.006;5.926;2023-06-14T08:40:17;4.40;;;2.50;;
70908;SDS011;58554;52.006;5.926;2023-06-14T08:42:47;4.18;;;2.70;;
70908;SDS011;58554;52.006;5.926;2023-06-14T08:45:17;6.90;;;3.15;;
70908;SDS011;58554;52.006;5.926;2023-06-14T08:47:46;4.90;;;2.80;;
70908;SDS011;58554;52.006;5.926;2023-06-14T08:50:13;4.25;;;2.80;;
70908;SDS011;58554;52.006;5.926;2023-06-14T08:52:41;4.38;;;2.80;;
70908;SDS011;58554;52.006;5.926;2023-06-14T08:55:17;5.13;;;3.03;;
70908;SDS011;58554;52.006;5.926;2023-06-14T08:57:44;3.83;;;2.63;;
70908;SDS011;58554;52.006;5.926;2023-06-14T09:00:13;3.30;;;2.30;;
70908;SDS011;58554;52.006;5.926;2023-06-14T09:02:40;4.10;;;2.37;;
70908;SDS011;58554;52.006;5.926;2023-06-14T09:05:10;5.63;;;2.50;;
70908;SDS011;58554;52.006;5.926;2023-06-14T09:07:36;4.83;;;2.03;;
70908;SDS011;58554;52.006;5.926;2023-06-14T09:10:09;5.43;;;2.88;;
70908;SDS011;58554;52.006;5.926;2023-06-14T09:12:38;4.82;;;2.40;;
70908;SDS011;58554;52.006;5.926;2023-06-14T09:15:06;3.30;;;2.50;;
70908;SDS011;58554;52.006;5.926;2023-06-14T09:17:34;5.35;;;2.45;;
70908;SDS011;58554;52.006;5.926;2023-06-14T09:20:00;3.47;;;2.10;;
70908;SDS011;58554;52.006;5.926;2023-06-14T09:22:31;3.93;;;2.40;;
70908;SDS011;58554;52.006;5.926;2023-06-14T09:24:59;4.18;;;2.30;;
70908;SDS011;58554;52.006;5.926;2023-06-14T09:27:26;3.58;;;2.58;;
70908;SDS011;58554;52.006;5.926;2023-06-14T09:29:54;3.73;;;2.17;;
70908;SDS011;58554;52.006;5.926;2023-06-14T09:32:21;3.30;;;1.80;;
70908;SDS011;58554;52.006;5.926;2023-06-14T09:34:47;4.40;;;2.08;;
70908;SDS011;58554;52.006;5.926;2023-06-14T09:37:25;3.10;;;2.00;;
70908;SDS011;58554;52.006;5.926;2023-06-14T09:39:57;4.00;;;2.10;;
70908;SDS011;58554;52.006;5.926;2023-06-14T09:42:24;4.55;;;2.30;;
70908;SDS011;58554;52.006;5.926;2023-06-14T09:44:53;3.80;;;2.58;;
70908;SDS011;58554;52.006;5.926;2023-06-14T09:47:22;4.23;;;1.90;;
70908;SDS011;58554;52.006;5.926;2023-06-14T09:49:50;3.80;;;2.25;;
70908;SDS011;58554;52.006;5.926;2023-06-14T09:52:18;4.60;;;2.00;;
70908;SDS011;58554;52.006;5.926;2023-06-14T09:54:47;3.95;;;2.20;;
70908;SDS011;58554;52.006;5.926;2023-06-14T09:57:20;3.30;;;2.00;;
70908;SDS011;58554;52.006;5.926;2023-06-14T09:59:49;2.87;;;1.97;;
70908;SDS011;58554;52.006;5.926;2023-06-14T10:02:24;3.10;;;2.10;;
70908;SDS011;58554;52.006;5.926;2023-06-14T10:04:56;4.33;;;2.33;;
70908;SDS011;58554;52.006;5.926;2023-06-14T10:07:30;6.35;;;2.08;;
70908;SDS011;58554;52.006;5.926;2023-06-14T10:10:05;3.60;;;2.23;;
70908;SDS011;58554;52.006;5.926;2023-06-14T10:12:35;3.63;;;2.10;;
70908;SDS011;58554;52.006;5.926;2023-06-14T10:15:03;3.42;;;2.08;;
70908;SDS011;58554;52.006;5.926;2023-06-14T10:17:37;5.30;;;1.90;;
70908;SDS011;58554;52.006;5.926;2023-06-14T10:20:17;3.60;;;2.38;;
70908;SDS011;58554;52.006;5.926;2023-06-14T10:22:55;4.15;;;2.30;;
70908;SDS011;58554;52.006;5.926;2023-06-14T10:25:31;6.73;;;2.50;;
70908;SDS011;58554;52.006;5.926;2023-06-14T10:28:05;3.90;;;2.05;;
70908;SDS011;58554;52.006;5.926;2023-06-14T10:33:35;4.65;;;2.20;;
70908;SDS011;58554;52.006;5.926;2023-06-14T10:36:08;3.33;;;2.37;;
70908;SDS011;58554;52.006;5.926;2023-06-14T10:38:56;5.80;;;2.93;;
70908;SDS011;58554;52.006;5.926;2023-06-14T10:41:24;3.58;;;2.20;;
70908;SDS011;58554;52.006;5.926;2023-06-14T10:44:04;3.93;;;2.00;;
70908;SDS011;58554;52.006;5.926;2023-06-14T10:46:58;5.18;;;2.15;;
70908;SDS011;58554;52.006;5.926;2023-06-14T10:49:39;3.90;;;2.03;;
70908;SDS011;58554;52.006;5.926;2023-06-14T10:52:08;3.20;;;2.00;;
70908;SDS011;58554;52.006;5.926;2023-06-14T10:54:37;3.40;;;1.70;;
70908;SDS011;58554;52.006;5.926;2023-06-14T10:57:03;3.90;;;2.00;;
70908;SDS011;58554;52.006;5.926;2023-06-14T10:59:35;3.20;;;2.10;;
70908;SDS011;58554;52.006;5.926;2023-06-14T11:02:16;5.85;;;2.38;;
70908;SDS011;58554;52.006;5.926;2023-06-14T11:05:25;9.77;;;2.20;;
70908;SDS011;58554;52.006;5.926;2023-06-14T11:07:58;3.87;;;2.10;;
70908;SDS011;58554;52.006;5.926;2023-06-14T11:10:44;2.85;;;2.10;;
70908;SDS011;58554;52.006;5.926;2023-06-14T11:13:11;4.70;;;2.50;;
70908;SDS011;58554;52.006;5.926;2023-06-14T11:15:45;3.53;;;2.20;;
70908;SDS011;58554;52.006;5.926;2023-06-14T11:18:13;3.30;;;2.03;;
70908;SDS011;58554;52.006;5.926;2023-06-14T11:20:41;4.13;;;2.40;;
70908;SDS011;58554;52.006;5.926;2023-06-14T11:23:08;3.70;;;2.50;;
70908;SDS011;58554;52.006;5.926;2023-06-14T11:25:34;3.50;;;2.40;;
70908;SDS011;58554;52.006;5.926;2023-06-14T11:28:01;6.18;;;2.75;;
70908;SDS011;58554;52.006;5.926;2023-06-14T11:30:27;3.20;;;2.30;;
70908;SDS011;58554;52.006;5.926;2023-06-14T11:32:56;3.77;;;2.57;;
70908;SDS011;58554;52.006;5.926;2023-06-14T11:35:23;3.50;;;2.30;;
70908;SDS011;58554;52.006;5.926;2023-06-14T11:37:52;3.50;;;2.40;;
70908;SDS011;58554;52.006;5.926;2023-06-14T11:40:19;3.93;;;2.30;;
70908;SDS011;58554;52.006;5.926;2023-06-14T11:42:46;4.88;;;2.50;;
70908;SDS011;58554;52.006;5.926;2023-06-14T11:45:12;3.60;;;2.47;;
70908;SDS011;58554;52.006;5.926;2023-06-14T11:47:39;4.40;;;2.40;;
70908;SDS011;58554;52.006;5.926;2023-06-14T11:50:09;3.50;;;2.40;;
70908;SDS011;58554;52.006;5.926;2023-06-14T11:52:36;4.90;;;2.27;;
70908;SDS011;58554;52.006;5.926;2023-06-14T11:55:03;6.13;;;2.30;;
70908;SDS011;58554;52.006;5.926;2023-06-14T11:57:33;4.20;;;2.00;;
70908;SDS011;58554;52.006;5.926;2023-06-14T12:00:02;3.30;;;2.00;;
70908;SDS011;58554;52.006;5.926;2023-06-14T12:02:31;4.33;;;2.13;;
70908;SDS011;58554;52.006;5.926;2023-06-14T12:05:03;3.93;;;2.20;;
70908;SDS011;58554;52.006;5.926;2023-06-14T12:07:33;3.38;;;2.20;;
70908;SDS011;58554;52.006;5.926;2023-06-14T12:10:03;4.13;;;2.17;;
70908;SDS011;58554;52.006;5.926;2023-06-14T12:12:31;2.63;;;1.75;;
70908;SDS011;58554;52.006;5.926;2023-06-14T12:15:03;3.38;;;2.10;;
70908;SDS011;58554;52.006;5.926;2023-06-14T12:17:32;3.30;;;2.00;;
70908;SDS011;58554;52.006;5.926;2023-06-14T12:20:04;3.20;;;2.03;;
70908;SDS011;58554;52.006;5.926;2023-06-14T12:22:35;3.42;;;2.05;;
70908;SDS011;58554;52.006;5.926;2023-06-14T12:25:01;3.10;;;2.10;;
70908;SDS011;58554;52.006;5.926;2023-06-14T12:27:28;4.27;;;2.17;;
70908;SDS011;58554;52.006;5.926;2023-06-14T12:30:00;5.45;;;2.30;;
70908;SDS011;58554;52.006;5.926;2023-06-14T12:32:28;3.53;;;2.20;;
70908;SDS011;58554;52.006;5.926;2023-06-14T12:34:55;3.97;;;1.90;;
70908;SDS011;58554;52.006;5.926;2023-06-14T12:37:22;2.88;;;2.03;;
70908;SDS011;58554;52.006;5.926;2023-06-14T12:39:51;5.47;;;2.33;;
70908;SDS011;58554;52.006;5.926;2023-06-14T12:42:17;2.87;;;2.20;;
70908;SDS011;58554;52.006;5.926;2023-06-14T12:44:44;3.58;;;2.35;;
70908;SDS011;58554;52.006;5.926;2023-06-14T12:47:10;3.37;;;2.23;;
70908;SDS011;58554;52.006;5.926;2023-06-14T12:49:37;4.05;;;2.22;;
70908;SDS011;58554;52.006;5.926;2023-06-14T12:52:04;4.43;;;2.35;;
70908;SDS011;58554;52.006;5.926;2023-06-14T12:54:32;5.13;;;2.47;;
70908;SDS011;58554;52.006;5.926;2023-06-14T12:57:01;3.30;;;2.30;;
70908;SDS011;58554;52.006;5.926;2023-06-14T12:59:27;3.35;;;2.20;;
70908;SDS011;58554;52.006;5.926;2023-06-14T13:01:54;4.03;;;2.30;;
70908;SDS011;58554;52.006;5.926;2023-06-14T13:04:20;3.53;;;2.20;;
70908;SDS011;58554;52.006;5.926;2023-06-14T13:06:47;4.05;;;1.95;;
70908;SDS011;58554;52.006;5.926;2023-06-14T13:09:13;3.90;;;1.90;;
70908;SDS011;58554;52.006;5.926;2023-06-14T13:11:40;3.27;;;1.87;;
70908;SDS011;58554;52.006;5.926;2023-06-14T13:14:09;4.07;;;2.13;;
70908;SDS011;58554;52.006;5.926;2023-06-14T13:16:36;3.40;;;2.10;;
70908;SDS011;58554;52.006;5.926;2023-06-14T13:19:02;3.53;;;2.20;;
70908;SDS011;58554;52.006;5.926;2023-06-14T13:21:28;3.27;;;2.00;;
70908;SDS011;58554;52.006;5.926;2023-06-14T13:23:55;7.50;;;2.08;;
70908;SDS011;58554;52.006;5.926;2023-06-14T13:26:21;4.82;;;2.22;;
70908;SDS011;58554;52.006;5.926;2023-06-14T13:28:48;2.47;;;1.83;;
70908;SDS011;58554;52.006;5.926;2023-06-14T13:31:17;3.10;;;2.10;;
70908;SDS011;58554;52.006;5.926;2023-06-14T13:33:44;2.85;;;2.00;;
70908;SDS011;58554;52.006;5.926;2023-06-14T13:36:10;3.83;;;2.00;;
70908;SDS011;58554;52.006;5.926;2023-06-14T13:38:37;3.00;;;1.90;;
70908;SDS011;58554;52.006;5.926;2023-06-14T13:41:03;3.13;;;1.75;;
70908;SDS011;58554;52.006;5.926;2023-06-14T13:43:30;3.87;;;1.87;;
70908;SDS011;58554;52.006;5.926;2023-06-14T13:45:56;2.95;;;1.95;;
70908;SDS011;58554;52.006;5.926;2023-06-14T13:48:25;4.70;;;2.20;;
70908;SDS011;58554;52.006;5.926;2023-06-14T13:50:52;3.27;;;1.90;;
70908;SDS011;58554;52.006;5.926;2023-06-14T13:53:18;4.53;;;2.17;;
70908;SDS011;58554;52.006;5.926;2023-06-14T13:55:45;3.93;;;1.77;;
70908;SDS011;58554;52.006;5.926;2023-06-14T13:58:11;5.30;;;2.22;;
70908;SDS011;58554;52.006;5.926;2023-06-14T14:00:38;4.07;;;1.90;;
70908;SDS011;58554;52.006;5.926;2023-06-14T14:03:04;3.23;;;2.00;;
70908;SDS011;58554;52.006;5.926;2023-06-14T14:05:33;2.95;;;2.10;;
70908;SDS011;58554;52.006;5.926;2023-06-14T14:08:00;2.80;;;2.20;;
70908;SDS011;58554;52.006;5.926;2023-06-14T14:10:26;3.78;;;2.00;;
70908;SDS011;58554;52.006;5.926;2023-06-14T14:12:53;3.83;;;2.17;;
70908;SDS011;58554;52.006;5.926;2023-06-14T14:15:19;3.27;;;1.97;;
70908;SDS011;58554;52.006;5.926;2023-06-14T14:17:46;3.33;;;2.13;;
70908;SDS011;58554;52.006;5.926;2023-06-14T14:20:13;3.33;;;2.10;;
70908;SDS011;58554;52.006;5.926;2023-06-14T14:22:42;4.00;;;2.15;;
70908;SDS011;58554;52.006;5.926;2023-06-14T14:25:09;2.70;;;1.90;;
70908;SDS011;58554;52.006;5.926;2023-06-14T14:27:36;4.30;;;2.07;;
70908;SDS011;58554;52.006;5.926;2023-06-14T14:30:03;2.92;;;1.60;;
70908;SDS011;58554;52.006;5.926;2023-06-14T14:32:30;2.93;;;1.77;;
70908;SDS011;58554;52.006;5.926;2023-06-14T14:34:57;2.72;;;1.70;;
70908;SDS011;58554;52.006;5.926;2023-06-14T14:37:24;5.23;;;1.73;;
70908;SDS011;58554;52.006;5.926;2023-06-14T14:39:53;3.73;;;2.00;;
70908;SDS011;58554;52.006;5.926;2023-06-14T14:42:20;3.08;;;1.90;;
70908;SDS011;58554;52.006;5.926;2023-06-14T14:44:46;4.10;;;2.10;;
70908;SDS011;58554;52.006;5.926;2023-06-14T14:47:13;3.25;;;1.90;;
70908;SDS011;58554;52.006;5.926;2023-06-14T14:49:39;7.07;;;2.00;;
70908;SDS011;58554;52.006;5.926;2023-06-14T14:52:06;4.00;;;2.00;;
70908;SDS011;58554;52.006;5.926;2023-06-14T14:54:33;2.80;;;2.20;;
70908;SDS011;58554;52.006;5.926;2023-06-14T14:57:02;5.20;;;1.97;;